Time;durP1;ratioP1;P1;durP2;ratioP2;P2;SDS_P1;SDS_P2;PMS_P1;PMS_P2;Temp;Humidity;BMP_temperature;BMP_pressure;BME280_temperature;BME280_humidity;BME280_pressure;Samples;Min_cycle;Max_cycle;Signal;HPM_P1;HPM_P2
2024/02/11 00:04:35;;;;;;;17.23;5.75;;;;;;;7.09;100.00;97281.97;4941350;29;20036;-96
2024/02/11 00:07:18;;;;;;;25.73;6.65;;;;;;;6.98;100.00;97289.88;5461545;23;20048;-96
2024/02/11 00:09:43;;;;;;;32.55;6.82;;;;;;;7.03;100.00;97285.09;4928753;29;20039;-95
2024/02/11 00:12:09;;;;;;;22.35;5.70;;;;;;;7.08;100.00;97303.44;4931720;29;20035;-95
2024/02/11 00:14:34;;;;;;;28.40;6.10;;;;;;;7.12;100.00;97291.94;4933393;29;20059;-96
2024/02/11 00:17:00;;;;;;;24.48;6.05;;;;;;;6.97;100.00;97303.63;4935474;29;20088;-95
2024/02/11 00:19:27;;;;;;;28.88;6.40;;;;;;;7.01;100.00;97308.31;4934218;29;20048;-95
2024/02/11 00:21:52;;;;;;;25.02;6.78;;;;;;;7.09;100.00;97312.72;4934635;29;20035;-96
2024/02/11 00:24:19;;;;;;;27.45;7.57;;;;;;;7.09;100.00;97325.56;4936888;29;20032;-95
2024/02/11 00:26:45;;;;;;;30.70;6.40;;;;;;;7.08;100.00;97318.81;4937992;29;20134;-96
2024/02/11 00:29:11;;;;;;;39.33;7.30;;;;;;;7.05;100.00;97311.44;4938579;29;20028;-95
2024/02/11 00:31:38;;;;;;;25.70;6.85;;;;;;;7.13;100.00;97308.94;4939224;29;20084;-96
2024/02/11 00:34:04;;;;;;;38.95;7.70;;;;;;;7.18;100.00;97322.13;4939556;29;20016;-95
2024/02/11 00:36:30;;;;;;;32.78;8.90;;;;;;;7.15;100.00;97312.19;4941719;29;20095;-96
2024/02/11 00:38:56;;;;;;;24.50;7.38;;;;;;;7.16;100.00;97312.97;4941919;29;20104;-96
2024/02/11 00:41:21;;;;;;;26.65;6.90;;;;;;;7.17;100.00;97314.56;4942376;29;20031;-95
2024/02/11 00:43:50;;;;;;;33.78;6.88;;;;;;;7.18;100.00;97324.69;4941690;29;20032;-95
2024/02/11 00:46:16;;;;;;;30.45;7.13;;;;;;;7.23;100.00;97317.38;4942582;29;20019;-95
2024/02/11 00:48:42;;;;;;;36.22;7.63;;;;;;;7.26;100.00;97317.09;4942978;29;20028;-96
2024/02/11 00:51:10;;;;;;;39.92;6.70;;;;;;;7.31;100.00;97321.00;4942861;29;20091;-96
2024/02/11 00:54:03;;;;;;;40.42;7.20;;;;;;;7.22;100.00;97312.41;4932126;29;20016;-96
2024/02/11 01:58:33;;;;;;;31.58;7.45;;;;;;;7.35;100.00;97373.63;5203328;23;20079;-95
2024/02/11 02:00:59;;;;;;;31.73;6.47;;;;;;;7.27;100.00;97367.47;4918681;29;20466;-96
2024/02/11 02:03:25;;;;;;;36.85;9.82;;;;;;;7.27;100.00;97376.91;4917864;29;20024;-95
2024/02/11 02:05:54;;;;;;;42.30;7.68;;;;;;;7.30;100.00;97376.63;4917695;29;20047;-96
2024/02/11 02:08:21;;;;;;;36.03;7.75;;;;;;;7.22;100.00;97369.66;4917730;29;20028;-96
2024/02/11 02:10:46;;;;;;;32.20;8.75;;;;;;;7.23;100.00;97381.50;4918042;29;20032;-96
2024/02/11 02:13:12;;;;;;;23.60;6.47;;;;;;;7.30;100.00;97386.88;4918034;29;20031;-96
2024/02/11 02:15:37;;;;;;;28.23;6.43;;;;;;;7.23;100.00;97380.72;4918327;29;20030;-96
2024/02/11 02:18:03;;;;;;;29.38;6.53;;;;;;;7.21;100.00;97378.28;4918189;29;20095;-96
2024/02/11 02:20:29;;;;;;;38.17;8.90;;;;;;;7.27;100.00;97382.06;4917152;29;20363;-96
2024/02/11 02:22:54;;;;;;;28.90;7.07;;;;;;;7.22;100.00;97385.03;4917108;29;20036;-96
2024/02/11 02:25:19;;;;;;;33.95;6.60;;;;;;;7.32;100.00;97399.59;4917133;29;20047;-96
2024/02/11 02:27:46;;;;;;;28.23;6.55;;;;;;;7.25;100.00;97395.00;4916793;29;20028;-95
2024/02/11 02:30:12;;;;;;;19.90;6.32;;;;;;;7.27;100.00;97390.53;4916879;29;20424;-95
2024/02/11 02:32:37;;;;;;;36.55;6.80;;;;;;;7.22;100.00;97389.38;4916419;29;20024;-95
2024/02/11 02:35:03;;;;;;;23.10;6.13;;;;;;;7.19;100.00;97377.59;4916152;29;20534;-95
2024/02/11 02:37:29;;;;;;;22.33;6.03;;;;;;;7.26;100.00;97391.47;4917029;29;20577;-96
2024/02/11 02:39:55;;;;;;;37.22;8.23;;;;;;;7.27;100.00;97393.09;4917383;29;20032;-96
2024/02/11 02:42:20;;;;;;;31.85;8.27;;;;;;;7.16;100.00;97395.84;4917210;29;20063;-96
2024/02/11 02:44:46;;;;;;;31.25;8.07;;;;;;;7.17;100.00;97392.34;4917098;29;20035;-95
2024/02/11 02:47:12;;;;;;;28.65;6.13;;;;;;;7.15;100.00;97396.81;4917046;29;20505;-96
2024/02/11 02:49:38;;;;;;;32.45;7.13;;;;;;;7.19;100.00;97400.69;4916643;29;20028;-94
2024/02/11 02:52:06;;;;;;;36.47;7.22;;;;;;;7.17;100.00;97401.78;4916671;29;20071;-96
2024/02/11 02:54:32;;;;;;;32.25;6.68;;;;;;;7.13;100.00;97406.41;4917187;29;20491;-96
2024/02/11 02:56:58;;;;;;;39.58;7.20;;;;;;;7.17;100.00;97407.75;4916779;29;20108;-96
2024/02/11 02:59:24;;;;;;;21.77;6.90;;;;;;;7.19;100.00;97417.84;4917182;29;20028;-96
2024/02/11 03:01:54;;;;;;;32.47;6.65;;;;;;;7.16;100.00;97421.50;4917214;29;20024;-96
2024/02/11 03:04:19;;;;;;;29.52;6.38;;;;;;;7.10;100.00;97424.63;4917494;29;20020;-95
2024/02/11 03:06:45;;;;;;;26.08;8.10;;;;;;;7.16;100.00;97431.75;4917205;29;20030;-96
2024/02/11 03:09:10;;;;;;;30.85;6.82;;;;;;;7.07;100.00;97424.91;4917533;29;20039;-96
2024/02/11 03:11:37;;;;;;;36.33;7.72;;;;;;;7.03;100.00;97428.72;4916456;29;20122;-96
2024/02/11 03:14:03;;;;;;;24.17;8.00;;;;;;;7.02;100.00;97432.19;4917178;29;20470;-96
2024/02/11 03:16:28;;;;;;;32.88;8.80;;;;;;;7.08;100.00;97434.22;4917684;29;20083;-94
2024/02/11 03:18:53;;;;;;;40.75;8.35;;;;;;;7.08;100.00;97436.78;4917105;29;20067;-96
2024/02/11 03:21:20;;;;;;;31.67;8.38;;;;;;;7.06;100.00;97436.91;4916975;29;20046;-95
2024/02/11 03:23:46;;;;;;;43.85;8.95;;;;;;;7.09;100.00;97435.81;4917067;29;20077;-96
2024/02/11 03:26:11;;;;;;;28.70;7.75;;;;;;;7.07;100.00;97442.84;4917684;29;20436;-96
2024/02/11 03:28:40;;;;;;;34.10;7.85;;;;;;;7.12;100.00;97442.44;4918171;29;20043;-95
2024/02/11 03:31:07;;;;;;;25.42;6.90;;;;;;;7.00;100.00;97447.75;4918542;29;20024;-96
2024/02/11 03:33:33;;;;;;;30.40;7.55;;;;;;;6.99;100.00;97453.00;4918005;29;20031;-96
2024/02/11 03:35:59;;;;;;;17.38;7.30;;;;;;;6.96;100.00;97450.72;4918087;29;20031;-96
2024/02/11 03:38:24;;;;;;;35.15;6.15;;;;;;;6.95;100.00;97449.09;4918012;29;20020;-96
2024/02/11 03:40:53;;;;;;;27.25;6.60;;;;;;;7.03;100.00;97459.47;4917288;29;20039;-95
2024/02/11 03:43:19;;;;;;;46.63;10.75;;;;;;;7.04;100.00;97458.53;4917315;29;20032;-95
2024/02/11 03:45:46;;;;;;;23.98;6.30;;;;;;;6.95;100.00;97459.34;4916985;29;20032;-95
2024/02/11 03:48:13;;;;;;;21.40;5.60;;;;;;;6.89;100.00;97459.91;4920435;29;20032;-96
2024/02/11 03:50:39;;;;;;;26.13;6.57;;;;;;;6.96;100.00;97461.78;4920403;29;20123;-95
2024/02/11 03:53:05;;;;;;;25.70;6.10;;;;;;;6.96;100.00;97471.25;4919726;29;20115;-96
2024/02/11 03:55:31;;;;;;;32.58;9.63;;;;;;;6.95;100.00;97479.84;4920760;29;20086;-96
2024/02/11 03:58:01;;;;;;;30.67;7.32;;;;;;;6.92;100.00;97482.72;4921143;29;20024;-95
2024/02/11 04:00:27;;;;;;;23.10;6.18;;;;;;;6.95;100.00;97482.41;4922210;29;20039;-96
2024/02/11 04:02:53;;;;;;;23.77;6.35;;;;;;;6.94;100.00;97483.38;4921953;29;20114;-96
2024/02/11 04:05:20;;;;;;;28.15;5.93;;;;;;;6.97;100.00;97489.03;4921735;29;20070;-95
2024/02/11 04:07:46;;;;;;;37.40;7.45;;;;;;;6.96;100.00;97484.06;4921569;29;20078;-95
2024/02/11 04:10:22;;;;;;;28.30;6.25;;;;;;;7.00;100.00;97498.22;4921988;29;20111;-95
2024/02/11 04:12:52;;;;;;;25.48;6.35;;;;;;;6.93;100.00;97499.72;4922236;29;20052;-94
2024/02/11 04:15:19;;;;;;;34.05;10.00;;;;;;;6.88;100.00;97504.44;4921992;29;20032;-96
2024/02/11 04:17:48;;;;;;;36.95;6.75;;;;;;;6.90;100.00;97508.50;4920924;29;20035;-96
2024/02/11 04:20:24;;;;;;;34.63;7.63;;;;;;;6.91;100.00;97504.19;4920844;29;20126;-96
2024/02/11 04:23:00;;;;;;;38.75;7.68;;;;;;;6.91;100.00;97519.56;4921143;29;20031;-96
2024/02/11 04:25:33;;;;;;;29.42;6.22;;;;;;;6.96;100.00;97523.31;4922121;29;20406;-96
2024/02/11 04:28:02;;;;;;;25.50;7.10;;;;;;;6.94;100.00;97517.53;4922231;29;20024;-96
2024/02/11 04:30:29;;;;;;;32.85;7.38;;;;;;;6.95;100.00;97515.75;4922638;29;20115;-95
2024/02/11 04:32:57;;;;;;;32.10;7.80;;;;;;;6.92;100.00;97521.97;4922469;29;20039;-96
2024/02/11 04:35:24;;;;;;;31.40;6.57;;;;;;;6.86;100.00;97510.50;4922440;29;20020;-96
2024/02/11 04:37:52;;;;;;;22.50;6.60;;;;;;;6.90;100.00;97520.50;4922965;29;20442;-96
2024/02/11 04:40:19;;;;;;;35.95;8.95;;;;;;;6.86;100.00;97532.78;4924077;29;20036;-95
2024/02/11 04:42:52;;;;;;;27.38;7.35;;;;;;;6.86;100.00;97536.16;4922580;29;20088;-94
2024/02/11 04:45:19;;;;;;;21.55;6.78;;;;;;;6.82;100.00;97537.34;4921857;29;20415;-96
2024/02/11 04:47:49;;;;;;;26.45;6.65;;;;;;;6.79;100.00;97537.63;4922177;29;20024;-95
2024/02/11 04:50:16;;;;;;;22.75;6.20;;;;;;;6.78;100.00;97540.31;4921950;29;20066;-96
2024/02/11 04:52:54;;;;;;;25.65;6.25;;;;;;;6.75;100.00;97546.53;4922681;29;20024;-95
2024/02/11 04:55:27;;;;;;;32.20;6.75;;;;;;;6.77;100.00;97548.97;4922666;29;20032;-95
2024/02/11 04:57:56;;;;;;;32.97;6.53;;;;;;;6.88;100.00;97560.81;4922505;29;20032;-96
2024/02/11 05:00:26;;;;;;;27.95;6.90;;;;;;;6.89;100.00;97563.28;4923425;29;20132;-95
2024/02/11 05:02:58;;;;;;;21.38;5.80;;;;;;;6.88;100.00;97563.41;4922399;29;20036;-96
2024/02/11 05:05:28;;;;;;;27.35;5.63;;;;;;;6.86;100.00;97573.81;4922243;29;20024;-95
2024/02/11 05:08:00;;;;;;;18.30;5.97;;;;;;;6.88;100.00;97577.03;4922059;29;20024;-96
2024/02/11 05:10:27;;;;;;;26.90;6.03;;;;;;;6.92;100.00;97583.50;4923224;29;20074;-95
2024/02/11 05:12:54;;;;;;;24.65;6.75;;;;;;;6.97;100.00;97588.22;4922998;29;20032;-96
2024/02/11 05:15:20;;;;;;;27.52;7.68;;;;;;;6.96;100.00;97594.31;4922997;29;20475;-96
2024/02/11 05:17:49;;;;;;;28.65;7.78;;;;;;;6.99;100.00;97599.16;4921988;29;20038;-96
2024/02/11 05:20:21;;;;;;;32.85;9.40;;;;;;;7.04;100.00;97602.94;4924011;29;20034;-96
2024/02/11 05:22:46;;;;;;;23.95;9.07;;;;;;;7.02;100.00;97601.44;4923313;29;20099;-95
2024/02/11 05:25:21;;;;;;;22.85;9.40;;;;;;;7.04;100.00;97608.06;4922132;29;20471;-95
2024/02/11 05:27:55;;;;;;;29.45;9.48;;;;;;;6.99;100.00;97619.69;4921393;29;20048;-95
2024/02/11 05:30:23;;;;;;;22.67;9.05;;;;;;;6.94;100.00;97614.94;4922234;29;20082;-95
2024/02/11 05:32:57;;;;;;;27.67;10.48;;;;;;;6.91;100.00;97625.47;4924006;29;20062;-96
2024/02/11 05:35:24;;;;;;;29.80;9.82;;;;;;;6.84;100.00;97632.88;4924011;29;20023;-96
2024/02/11 05:37:57;;;;;;;39.00;10.30;;;;;;;6.72;100.00;97636.53;4924306;29;20502;-95
2024/02/11 05:40:26;;;;;;;27.67;10.20;;;;;;;6.76;100.00;97630.19;4925267;29;20383;-96
2024/02/11 05:42:53;;;;;;;20.15;9.73;;;;;;;6.69;100.00;97634.22;4924101;29;20032;-95
2024/02/11 05:45:20;;;;;;;28.98;10.55;;;;;;;6.76;100.00;97640.44;4924097;29;20019;-96
2024/02/11 05:47:47;;;;;;;31.00;11.25;;;;;;;6.70;100.00;97646.09;4923801;29;20403;-95
2024/02/11 05:50:12;;;;;;;34.33;11.55;;;;;;;6.60;100.00;97648.63;4924131;29;20414;-95
2024/02/11 05:52:39;;;;;;;36.25;11.32;;;;;;;6.61;100.00;97646.91;4923879;29;20028;-95
2024/02/11 05:55:09;;;;;;;27.35;11.70;;;;;;;6.59;100.00;97659.03;4925080;29;20024;-95
2024/02/11 05:57:36;;;;;;;25.45;10.80;;;;;;;6.51;100.00;97653.72;4923412;29;20024;-95
2024/02/11 06:00:01;;;;;;;24.08;9.57;;;;;;;6.57;100.00;97661.72;4923852;29;20486;-96
2024/02/11 06:02:26;;;;;;;26.38;10.52;;;;;;;6.52;100.00;97665.63;4923477;29;20032;-96
2024/02/11 06:04:52;;;;;;;19.77;9.77;;;;;;;6.57;100.00;97668.59;4923227;29;20072;-95
2024/02/11 06:07:19;;;;;;;21.45;9.48;;;;;;;6.54;100.00;97679.13;4921439;29;20084;-95
2024/02/11 06:09:45;;;;;;;23.98;11.15;;;;;;;6.50;100.00;97683.69;4923294;29;20032;-96
2024/02/11 06:12:11;;;;;;;29.10;13.65;;;;;;;6.59;100.00;97684.66;4921939;29;20024;-95
2024/02/11 06:14:37;;;;;;;26.42;11.55;;;;;;;6.56;100.00;97690.84;4922847;29;20110;-95
2024/02/11 06:17:04;;;;;;;35.55;12.68;;;;;;;6.49;100.00;97688.94;4922699;29;20028;-96
2024/02/11 06:19:29;;;;;;;28.00;12.88;;;;;;;6.53;100.00;97698.78;4921498;29;20024;-95
2024/02/11 06:21:55;;;;;;;22.20;10.48;;;;;;;6.45;100.00;97700.38;4922868;29;20087;-95
2024/02/11 06:24:24;;;;;;;28.05;11.50;;;;;;;6.46;100.00;97699.44;4922386;29;20479;-96
2024/02/11 06:26:50;;;;;;;24.05;11.68;;;;;;;6.41;100.00;97705.78;4921361;29;20024;-96
2024/02/11 06:29:17;;;;;;;28.00;12.35;;;;;;;6.34;100.00;97707.22;4926196;29;20059;-96
2024/02/11 06:31:43;;;;;;;26.17;12.20;;;;;;;6.40;100.00;97711.81;4923349;29;20024;-96
2024/02/11 06:34:08;;;;;;;29.00;13.20;;;;;;;6.45;100.00;97713.19;4924408;29;20039;-95
2024/02/11 06:36:37;;;;;;;37.53;12.93;;;;;;;6.49;100.00;97724.81;4925139;29;20043;-96
2024/02/11 06:39:04;;;;;;;35.83;13.50;;;;;;;6.48;100.00;97728.31;4923999;29;20027;-96
2024/02/11 06:41:32;;;;;;;30.13;13.63;;;;;;;6.43;100.00;97729.50;4924140;29;20123;-96
2024/02/11 06:44:03;;;;;;;35.50;16.05;;;;;;;6.49;100.00;97735.06;4923630;29;20554;-96
2024/02/11 06:46:29;;;;;;;;;;;;;;;6.54;100.00;97750.88;4924253;29;20390;-96
2024/02/11 06:48:54;;;;;;;31.42;14.15;;;;;;;6.52;100.00;97743.31;4923964;29;19915;-96
2024/02/11 06:51:21;;;;;;;32.25;15.45;;;;;;;6.42;100.00;97750.13;4923170;29;20024;-95
2024/02/11 06:53:46;;;;;;;33.28;14.10;;;;;;;6.37;100.00;97753.09;4923036;29;20032;-96
2024/02/11 06:56:12;;;;;;;30.80;13.77;;;;;;;6.45;100.00;97764.44;4921994;29;20051;-96
2024/02/11 06:58:41;;;;;;;39.65;15.60;;;;;;;6.42;100.00;97766.31;4923294;29;20031;-95
2024/02/11 07:01:09;;;;;;;33.83;14.00;;;;;;;6.34;100.00;97763.59;4923371;29;20118;-96
2024/02/11 07:03:37;;;;;;;31.10;14.15;;;;;;;6.35;100.00;97767.75;4922784;29;20028;-95
2024/02/11 07:06:06;;;;;;;29.52;14.18;;;;;;;6.40;100.00;97786.13;4922405;29;20092;-96
2024/02/11 07:08:33;;;;;;;33.47;14.35;;;;;;;6.41;100.00;97785.19;4922737;29;20032;-95
2024/02/11 07:10:58;;;;;;;39.05;14.10;;;;;;;6.42;100.00;97781.69;4925331;29;20036;-95
2024/02/11 07:13:25;;;;;;;32.70;13.40;;;;;;;6.36;100.00;97782.19;4924886;29;20067;-95
2024/02/11 07:15:50;;;;;;;34.47;15.10;;;;;;;6.35;100.00;97793.38;4922881;29;20024;-96
2024/02/11 07:18:16;;;;;;;32.30;14.43;;;;;;;6.52;100.00;97812.47;4925109;29;20031;-95
2024/02/11 07:20:42;;;;;;;41.97;14.15;;;;;;;6.50;100.00;97798.19;4924024;29;20462;-95
2024/02/11 07:23:08;;;;;;;27.70;13.82;;;;;;;6.42;100.00;97812.44;4923714;29;20020;-95
2024/02/11 07:25:33;;;;;;;30.48;12.52;;;;;;;6.39;100.00;97815.25;4926011;29;20056;-96
2024/02/11 07:27:59;;;;;;;33.55;10.95;;;;;;;6.41;100.00;97820.22;4927454;29;20032;-96
2024/02/11 07:30:25;;;;;;;27.15;10.60;;;;;;;6.44;100.00;97820.00;4927469;29;20029;-96
2024/02/11 07:32:51;;;;;;;31.13;10.43;;;;;;;6.32;100.00;97816.69;4927949;29;20160;-95
2024/02/11 07:35:19;;;;;;;30.65;10.25;;;;;;;6.38;100.00;97834.09;4928736;29;20052;-95
2024/02/11 07:37:45;;;;;;;25.45;10.73;;;;;;;6.53;100.00;97834.59;4912672;29;20036;-96
2024/02/11 07:40:11;;;;;;;28.63;9.65;;;;;;;6.51;100.00;97840.78;4928116;29;20036;-95
2024/02/11 07:42:37;;;;;;;31.35;10.68;;;;;;;6.50;100.00;97855.34;4928999;29;20047;-95
2024/02/11 07:45:03;;;;;;;29.63;10.00;;;;;;;6.64;100.00;97872.16;4927869;29;20020;-95
2024/02/11 07:47:30;;;;;;;26.50;9.48;;;;;;;6.54;100.00;97866.19;4927551;29;20028;-96
2024/02/11 07:52:43;;;;;;;20.45;8.90;;;;;;;6.49;100.00;97888.81;5209434;23;20052;-96
2024/02/11 07:55:11;;;;;;;33.45;10.70;;;;;;;6.52;100.00;97893.69;4927109;29;20024;-96
2024/02/11 07:57:37;;;;;;;23.38;9.65;;;;;;;6.54;100.00;97890.06;4926187;29;20032;-95
2024/02/11 08:00:03;;;;;;;26.13;8.85;;;;;;;6.51;100.00;97899.72;4925033;29;20032;-96
2024/02/11 08:02:29;;;;;;;26.58;10.18;;;;;;;6.53;100.00;97903.78;4924157;29;20027;-96
2024/02/11 08:04:54;;;;;;;42.60;11.23;;;;;;;6.59;100.00;97915.31;4923441;29;20028;-96
2024/02/11 08:07:21;;;;;;;36.05;12.52;;;;;;;6.61;100.00;97909.13;4924569;29;20088;-95
2024/02/11 08:09:47;;;;;;;29.17;11.18;;;;;;;6.58;100.00;97914.50;4926492;29;20055;-96
2024/02/11 08:12:13;;;;;;;32.20;11.57;;;;;;;6.52;100.00;97925.25;4927159;29;20028;-95
2024/02/11 08:14:40;;;;;;;45.63;13.13;;;;;;;6.62;100.00;97945.81;4927256;29;20436;-96
2024/02/11 08:17:06;;;;;;;39.20;11.95;;;;;;;6.57;100.00;97947.94;4911626;29;20036;-96
2024/02/11 08:19:32;;;;;;;34.97;10.82;;;;;;;6.51;100.00;97943.28;4927566;29;20028;-95
2024/02/11 08:21:58;;;;;;;36.83;10.82;;;;;;;6.57;100.00;97940.25;4912339;29;20068;-96
2024/02/11 08:24:24;;;;;;;29.65;10.60;;;;;;;6.72;100.00;97951.81;4926431;29;20091;-96
2024/02/11 08:26:49;;;;;;;25.77;10.07;;;;;;;6.69;100.00;97943.56;4927480;29;20035;-96
2024/02/11 08:29:15;;;;;;;28.15;10.13;;;;;;;6.74;100.00;97949.13;4927732;29;20047;-96
2024/02/11 08:31:41;;;;;;;28.38;9.95;;;;;;;6.67;100.00;97955.69;4928433;29;20033;-96
2024/02/11 08:34:08;;;;;;;25.00;8.63;;;;;;;6.71;100.00;97955.31;4932559;29;20024;-95
2024/02/11 08:36:34;;;;;;;36.95;9.70;;;;;;;6.72;100.00;97967.19;4931394;29;20052;-95
2024/02/11 08:39:01;;;;;;;25.20;8.25;;;;;;;6.72;100.00;97969.75;4930143;29;20036;-96
2024/02/11 08:41:27;;;;;;;21.08;7.55;;;;;;;6.81;100.00;97966.44;4931414;29;20032;-95
2024/02/11 08:43:53;;;;;;;22.67;8.18;;;;;;;6.79;100.00;97968.31;4930623;29;20033;-96
2024/02/11 08:46:19;;;;;;;22.13;8.45;;;;;;;6.89;100.00;97967.56;4931140;29;20122;-95
2024/02/11 08:48:45;;;;;;;33.83;8.65;;;;;;;6.82;100.00;97965.50;4931683;29;20032;-95
2024/02/11 08:51:15;;;;;;;27.35;8.27;;;;;;;6.75;100.00;97977.19;4932143;29;20031;-96
2024/02/11 08:53:41;;;;;;;34.38;9.65;;;;;;;6.72;100.00;97992.00;4933977;29;20040;-96
2024/02/11 08:56:09;;;;;;;35.47;10.50;;;;;;;6.86;100.00;97994.28;4933926;29;20095;-96
2024/02/11 08:58:35;;;;;;;23.48;9.77;;;;;;;6.85;100.00;97992.63;4932254;29;20056;-96
2024/02/11 09:01:00;;;;;;;25.27;10.77;;;;;;;6.99;100.00;98001.78;4932949;29;20431;-96
2024/02/11 09:03:26;;;;;;;27.48;11.85;;;;;;;7.10;100.00;98004.28;4932535;29;20554;-96
2024/02/11 09:05:52;;;;;;;32.92;11.43;;;;;;;7.24;100.00;98010.81;4932196;29;20079;-96
2024/02/11 09:08:20;;;;;;;29.42;11.93;;;;;;;7.09;100.00;98010.34;4931765;29;20028;-96
2024/02/11 09:10:46;;;;;;;24.90;10.18;;;;;;;6.94;100.00;98007.28;4932363;29;20048;-96
2024/02/11 09:13:12;;;;;;;25.75;10.50;;;;;;;6.94;100.00;98014.16;4916162;29;20020;-95
2024/02/11 09:15:38;;;;;;;27.65;11.18;;;;;;;6.97;100.00;98027.53;4932773;29;20405;-96
2024/02/11 09:18:05;;;;;;;26.45;11.13;;;;;;;7.10;100.00;98027.38;4931689;29;20084;-96
2024/02/11 09:20:34;;;;;;;28.17;10.98;;;;;;;7.23;100.00;98033.09;4933556;29;20028;-96
2024/02/11 09:23:00;;;;;;;33.28;11.27;;;;;;;7.22;100.00;98028.94;4934547;29;20032;-95
2024/02/11 09:25:28;;;;;;;27.63;10.70;;;;;;;7.21;100.00;98032.41;4933214;29;20031;-96
2024/02/11 09:27:55;;;;;;;24.40;10.13;;;;;;;7.36;100.00;98040.59;4918221;29;20035;-95
2024/02/11 09:30:24;;;;;;;30.33;10.35;;;;;;;7.28;100.00;98030.16;4933311;29;20028;-96
2024/02/11 09:32:50;;;;;;;26.65;9.77;;;;;;;7.36;100.00;98037.22;4936406;29;20032;-96
2024/02/11 09:35:20;;;;;;;28.13;9.35;;;;;;;7.55;100.00;98032.19;4936235;29;20043;-96
2024/02/11 09:37:46;;;;;;;20.33;9.55;;;;;;;7.71;100.00;98032.53;4936189;29;20028;-96
2024/02/11 09:40:15;;;;;;;24.58;10.27;;;;;;;8.01;100.00;98051.44;4936106;29;20096;-96
2024/02/11 09:42:45;;;;;;;24.77;8.55;;;;;;;7.97;100.00;98049.25;4936395;29;20008;-96
2024/02/11 09:45:18;;;;;;;20.83;8.23;;;;;;;7.93;100.00;98051.28;4936671;29;20064;-96
2024/02/11 09:47:49;;;;;;;20.52;8.18;;;;;;;7.92;100.00;98059.91;4921892;29;20071;-95
2024/02/11 09:50:21;;;;;;;21.43;7.47;;;;;;;7.70;100.00;98068.59;4937804;29;20095;-96
2024/02/11 09:52:47;;;;;;;19.23;8.23;;;;;;;7.79;100.00;98064.47;4938189;29;20064;-96
2024/02/11 09:55:15;;;;;;;19.58;7.75;;;;;;;7.85;100.00;98069.06;4938895;29;20060;-96
2024/02/11 09:57:46;;;;;;;19.10;8.32;;;;;;;8.46;100.00;98069.03;4938451;29;20092;-96
2024/02/11 10:00:15;;;;;;;19.93;9.47;;;;;;;9.67;100.00;98079.75;4938054;29;20103;-96
2024/02/11 10:02:44;;;;;;;27.30;11.05;;;;;;;10.74;100.00;98080.06;4937750;29;20032;-96
2024/02/11 10:05:17;;;;;;;17.73;8.25;;;;;;;12.23;100.00;98087.81;4937943;29;20024;-96
2024/02/11 10:07:45;;;;;;;15.30;6.20;;;;;;;11.97;100.00;98104.19;4938997;29;20040;-96
2024/02/11 10:10:19;;;;;;;19.63;6.63;;;;;;;12.34;100.00;98105.66;4939858;29;20100;-96
2024/02/11 10:12:47;;;;;;;12.98;5.97;;;;;;;11.38;100.00;98103.97;4939762;29;20099;-96
2024/02/11 10:15:26;;;;;;;13.80;6.07;;;;;;;11.34;100.00;98102.66;4939538;29;20040;-96
2024/02/11 11:04:26;;;;;;;8.48;2.63;;;;;;;10.98;100.00;98174.97;5610529;23;20052;-96
2024/02/11 11:06:53;;;;;;;7.43;3.08;;;;;;;10.86;100.00;98181.28;4936069;29;20044;-95
2024/02/11 11:09:22;;;;;;;6.85;2.83;;;;;;;10.85;100.00;98177.06;4935071;29;20034;-96
2024/02/11 11:11:47;;;;;;;14.18;2.70;;;;;;;10.89;100.00;98194.69;4935233;29;20063;-96
2024/02/11 11:14:13;;;;;;;15.60;2.67;;;;;;;10.77;100.00;98171.84;4935344;29;20036;-96
2024/02/11 11:16:41;;;;;;;10.82;3.00;;;;;;;10.65;100.00;98184.91;4935856;29;20020;-96
2024/02/11 11:19:10;;;;;;;13.65;3.05;;;;;;;10.56;100.00;98193.53;4934987;29;20105;-96
2024/02/11 11:21:36;;;;;;;7.00;2.50;;;;;;;10.55;100.00;98197.06;4935256;29;20036;-96
2024/02/11 11:24:02;;;;;;;9.70;2.65;;;;;;;10.44;100.00;98203.22;4935417;29;20096;-96
2024/02/11 11:26:28;;;;;;;14.10;3.08;;;;;;;10.35;100.00;98204.06;4936286;29;20043;-96
2024/02/11 11:29:04;;;;;;;11.10;3.10;;;;;;;10.45;100.00;98204.03;4937947;29;20035;-96
2024/02/11 11:31:31;;;;;;;13.32;3.15;;;;;;;10.47;100.00;98217.59;4936683;29;20020;-96
2024/02/11 11:33:57;;;;;;;9.55;2.85;;;;;;;10.26;100.00;98216.00;4938081;29;20036;-96
2024/02/11 11:36:26;;;;;;;7.15;2.72;;;;;;;10.37;100.00;98222.00;4938834;29;20043;-96
2024/02/11 11:38:52;;;;;;;11.10;3.33;;;;;;;10.16;100.00;98230.69;4938081;29;20052;-96
2024/02/11 11:41:18;;;;;;;15.80;3.13;;;;;;;10.08;100.00;98222.84;4938110;29;20028;-96
2024/02/11 11:43:44;;;;;;;13.23;4.63;;;;;;;10.26;100.00;98231.47;4939151;29;20047;-96
2024/02/11 11:46:10;;;;;;;15.40;5.50;;;;;;;10.32;100.00;98225.00;4938278;29;20027;-96
2024/02/11 11:48:35;;;;;;;20.73;8.57;;;;;;;10.15;100.00;98231.66;4938612;29;20256;-96
2024/02/11 11:51:06;;;;;;;13.88;5.40;;;;;;;10.02;100.00;98259.47;4938900;29;20048;-96
2024/02/11 11:53:32;;;;;;;13.38;4.65;;;;;;;9.92;100.00;98248.38;4938519;29;20024;-96
2024/02/11 11:56:01;;;;;;;15.88;4.63;;;;;;;9.78;100.00;98242.69;4939851;29;20008;-96
2024/02/11 11:58:29;;;;;;;21.38;6.10;;;;;;;9.73;100.00;98242.31;4923643;29;20051;-96
2024/02/11 12:01:01;;;;;;;8.73;4.32;;;;;;;9.89;100.00;98243.50;4939015;29;20032;-96
2024/02/11 12:03:28;;;;;;;10.35;3.42;;;;;;;9.95;100.00;98241.19;4953712;29;20036;-96
2024/02/11 12:06:02;;;;;;;10.27;3.70;;;;;;;9.97;100.00;98251.34;4954220;29;20026;-96
2024/02/11 12:08:39;;;;;;;11.30;3.08;;;;;;;10.16;100.00;98256.47;4941605;29;20015;-96
2024/02/11 12:11:11;;;;;;;11.90;3.60;;;;;;;10.15;100.00;98248.88;4942498;29;20093;-96
2024/02/11 12:13:40;;;;;;;14.93;3.85;;;;;;;10.28;100.00;98245.06;4941985;29;20026;-96
2024/02/11 12:16:13;;;;;;;13.68;3.60;;;;;;;10.49;100.00;98256.97;4941088;29;20043;-96
2024/02/11 12:18:43;;;;;;;11.52;3.72;;;;;;;10.86;100.00;98238.06;4940060;29;20027;-96
2024/02/11 12:21:10;;;;;;;10.10;2.92;;;;;;;10.19;100.00;98247.63;4940353;29;20040;-96
2024/02/11 12:23:36;;;;;;;15.73;4.00;;;;;;;10.58;100.00;98240.63;4939625;29;20120;-96
2024/02/11 12:26:06;;;;;;;15.20;3.78;;;;;;;11.24;100.00;98254.25;4938511;29;20127;-96
2024/02/11 12:28:37;;;;;;;13.43;3.65;;;;;;;11.49;100.00;98245.81;4938928;29;20056;-96
2024/02/11 12:31:13;;;;;;;12.70;3.47;;;;;;;11.65;100.00;98241.72;4940477;29;20012;-96
2024/02/11 12:33:40;;;;;;;11.65;3.70;;;;;;;11.50;100.00;98246.63;4939533;29;20028;-95
2024/02/11 12:36:11;;;;;;;14.40;3.10;;;;;;;11.71;100.00;98243.75;4924681;29;20060;-96
2024/02/11 12:38:44;;;;;;;12.68;3.22;;;;;;;11.48;100.00;98245.94;4940164;29;20127;-96
2024/02/11 12:41:11;;;;;;;14.75;3.03;;;;;;;11.67;100.00;98247.56;4939032;29;20059;-96
2024/02/11 12:43:43;;;;;;;9.45;3.17;;;;;;;12.41;100.00;98252.31;4940781;29;20024;-96
2024/02/11 12:46:10;;;;;;;9.95;3.10;;;;;;;11.82;100.00;98251.25;4937160;29;20039;-96
2024/02/11 12:48:38;;;;;;;10.23;2.63;;;;;;;12.71;100.00;98263.13;4936946;29;20028;-96
2024/02/11 12:51:10;;;;;;;10.18;2.72;;;;;;;13.21;100.00;98251.16;4935446;29;20032;-96
2024/02/11 12:53:38;;;;;;;7.45;2.85;;;;;;;13.06;100.00;98263.91;4935594;29;20024;-96
2024/02/11 12:56:06;;;;;;;7.78;2.65;;;;;;;13.36;99.34;98257.34;4936431;29;20074;-96
2024/02/11 12:58:33;;;;;;;8.30;3.08;;;;;;;13.59;93.87;98267.13;4937034;29;20035;-96
2024/02/11 13:01:04;;;;;;;11.02;2.92;;;;;;;13.58;90.83;98268.91;4938573;29;20103;-96
2024/02/11 13:03:34;;;;;;;13.43;3.15;;;;;;;13.52;92.98;98261.78;4941079;29;20035;-96
2024/02/11 13:06:01;;;;;;;7.28;2.38;;;;;;;12.91;98.34;98262.91;4940917;29;20025;-96
2024/02/11 13:08:32;;;;;;;10.40;3.20;;;;;;;12.50;100.00;98281.63;4939581;29;20047;-96
2024/02/11 13:11:06;;;;;;;13.02;3.05;;;;;;;11.61;94.93;98280.00;4940192;29;20034;-96
2024/02/11 13:13:32;;;;;;;6.30;2.45;;;;;;;11.70;99.48;98273.91;4935025;29;20103;-96
2024/02/11 13:16:01;;;;;;;4.95;1.90;;;;;;;11.92;100.00;98279.63;4935920;29;20019;-96
2024/02/11 13:18:28;;;;;;;10.13;2.10;;;;;;;11.95;100.00;98274.97;4935651;29;20039;-96